Birmingham-Shuttlesworth International Airport Birmingham US
ICAO: KBHM
IATA: BHM
Category: Large
Scheduled Services: Yes

Elevation: 650 ft
TransAlt. 18000 ft.

Airport Communications:
APP/DEP:123.8
ATIS:119.4
CLNC DEL:125.675
GND:121.7
ARNG OPS:38.7
ANG COMD POST:28.73
ANNISTON RDO:122.2
TWR:119.9
UNICOM:122.95

KBHM Zoom In..

Runways:

(A) RW 06 length 11998 ft width 150 ft
ILS 110.30 / hdg 58

(B) RW 18 length 7099 ft width 150 ft
LOC 111.30 / hdg 183

(C) RW 24 length 11998 ft width 150 ft
ILS 109.50 / hdg 238

(D) RW 36 length 7099 ft width 150 ft
LOC 111.30 / hdg 3

Location; KBHM
Day. 26 / Time. 03.53 Zulu
* Altimeter: 29.96
* Temperature: 21° c. 69.8°f.
* Wind from: 000° Speed 00 kn.
Dewpoint: 21° c.
Visibility: 9 Statute Miles.
Clouds: Few 1000 ft.

KBHM 260353Z 00000KT 9SM FEW100 21/21 A2996 RMK AO2 SLP139 T02060206


Wind - Calm.

 
 
jpsmedia.com for Web Design SOUNDCLOUD worldairports.se 2018   terms of use